Tropical Cyclones
[Index]
Main Index Home Page Stock Weather Photos Extreme Storms Discussion Storm News and Storm Chasing Reports Tropical Cyclones / Hurricanes / Typhoons Weather Data and Links Wild Fires / Bushfires Weather Observation Techniques Weather Picture Catalogue Tornado Pictures and Reports Stock Video Footage and DVDs for sale
Season 1983-1984 Tropical Cyclone DARYL Track Map
Season 1983-1984 Summaries: [BoM-AU] [JTWC-AU] [JTWC-SIO] [JTWC-SPAC] [JTWC-SH]
<<- Previous TC | BoM 1983-1984 Season | Next TC ->>

click for intensity scale information  Lat/long Grid: Show Hide

 Date Labels: Show Hide

Bureau of Meteorology Tropical Cyclone Data

Name: DARYL
Number: 660 / 198384_19

06 Mar 1984 12:00 UTC to 20 Mar 1984 06:00 UTC

    date/time    lat    long    hPa   cat  kts
1984-03-06 12    8.6   101.4   1004                     
1984-03-06 18    8.7   101.6   1003                     
1984-03-07 00    8.8   102.0   1002                     
1984-03-07 06    8.9   102.3   1001                     
1984-03-07 12    9.1   102.4   1001                     
1984-03-07 18    9.4   102.5   1001                     
1984-03-08 00    9.6   102.7   1000                     
1984-03-08 06    9.8   102.8   1000                     
1984-03-08 12   10.0   103.0   1000                     
1984-03-08 18   10.1   103.2   1000                     
1984-03-09 00   10.3   103.3    999                     
1984-03-09 06   10.8   103.3    998                     
1984-03-09 12   11.3   103.3    998                     
1984-03-09 18   11.6   103.0    998                     
1984-03-10 00   11.8   102.6    997                     
1984-03-10 06   12.2   101.7    996                     
1984-03-10 12   12.4   100.7    993    1                
1984-03-10 18   12.5    99.8    990    1                
1984-03-11 00   12.5    98.8    988    1                
1984-03-11 06   12.6    98.0    986    1                
1984-03-11 12   12.9    97.0    984    2                
1984-03-11 18   13.1    96.0    981    2                
1984-03-12 00   13.4    94.7    979    2                
1984-03-12 06   13.6    93.3    977    2                
1984-03-12 12   13.9    92.1    975    2                
1984-03-12 18   14.5    91.0    973    2                
1984-03-13 00   14.9    89.8    970    3                
1984-03-13 06   15.4    88.6    966    3                
1984-03-13 12   15.9    87.6    960    3                
1984-03-13 18   16.4    86.9    958    3                
1984-03-14 00   17.1    86.0    956    3                
1984-03-14 06   17.8    85.2    955    4                
1984-03-14 12   18.3    84.4    956    3                
1984-03-14 18   18.6    83.9    958    3                
1984-03-15 00   19.2    83.3    964    3                
1984-03-15 06   19.7    82.6    972    2                
1984-03-15 12   20.1    82.0    976    2                
1984-03-15 18   20.8    81.2    981    2                
1984-03-16 00   21.5    80.4    988    1                
1984-03-16 06   22.1    79.5    992    1                
1984-03-16 12   23.0    78.5    996                     
1984-03-16 18   23.6    77.9    994    1                
1984-03-17 00   24.4    77.3    996                     
1984-03-17 06   25.3    76.9    997                     
1984-03-17 12   26.1    77.1    998                     
1984-03-17 18   26.6    77.7    999                     
1984-03-18 00   27.0    78.3   1000                     
1984-03-18 06   27.3    79.1   1001                     
1984-03-18 12   27.4    79.8   1002                     
1984-03-18 18   27.5    80.6   1003                     
1984-03-19 00   27.6    81.5   1004                     
1984-03-19 06   27.7    82.7   1004                     
1984-03-19 12   28.0    84.4   1005                     
1984-03-19 18   28.1    86.0   1005                     
1984-03-20 00   28.2    87.4   1006                     
1984-03-20 06   28.2    88.9   1006                     
Winds are 10-min average.

Tropical cyclone tracks developed by Michael Bath using data from the Bureau of Meteorology and Google Maps.


[Australian Severe Weather index] [Copyright Notice] [Email Contacts] [Search This Site] [Privacy Policy]
Document: tropical_cyclone_daryl.htm Updated: 30 May 2013